createdAt,value
2019-05-28T00:01:02.525Z,4.93
2019-05-28T00:06:09.938Z,6.03
2019-05-28T00:11:17.363Z,5.35
2019-05-28T00:16:24.832Z,4.87
2019-05-28T00:21:32.257Z,4.03
2019-05-28T00:26:39.755Z,4.77
2019-05-28T00:31:47.162Z,5.01
2019-05-28T00:36:54.586Z,6.08
2019-05-28T00:42:01.909Z,6.21
2019-05-28T00:47:09.303Z,5.07
2019-05-28T00:52:16.903Z,5.66
2019-05-28T00:57:24.243Z,6.65
2019-05-28T01:02:31.672Z,4.98
2019-05-28T01:07:39.046Z,6.58
2019-05-28T01:12:46.525Z,5.12
2019-05-28T01:17:53.907Z,5.40
2019-05-28T01:23:01.333Z,7.43
2019-05-28T01:28:08.768Z,6.58
2019-05-28T01:33:16.276Z,4.99
2019-05-28T01:38:23.676Z,4.76
2019-05-28T01:43:31.328Z,5.54
2019-05-28T01:48:38.763Z,6.15
2019-05-28T01:53:46.152Z,6.41
2019-05-28T01:58:53.502Z,6.76
2019-05-28T02:04:01.012Z,6.30
2019-05-28T02:09:08.388Z,6.63
2019-05-28T02:14:15.811Z,8.38
2019-05-28T02:19:23.240Z,8.93
2019-05-28T02:24:30.776Z,6.95
2019-05-28T02:29:38.128Z,7.46
2019-05-28T02:34:45.600Z,5.46
2019-05-28T02:39:52.954Z,4.30
2019-05-28T02:45:00.390Z,5.91
2019-05-28T02:50:07.765Z,8.21
2019-05-28T02:55:17.385Z,7.04
2019-05-28T03:00:24.758Z,6.06
2019-05-28T03:05:32.164Z,7.85
2019-05-28T03:11:01.314Z,5.89
2019-05-28T03:15:46.460Z,5.09
2019-05-28T03:20:53.829Z,4.84
2019-05-28T03:26:01.245Z,6.10
2019-05-28T03:31:08.726Z,4.79
2019-05-28T03:36:16.212Z,7.26
2019-05-28T03:41:23.596Z,5.92
2019-05-28T03:46:31.007Z,6.01
2019-05-28T03:51:38.499Z,5.03
2019-05-28T03:56:45.889Z,5.87
2019-05-28T04:01:53.268Z,6.97
2019-05-28T04:07:00.627Z,6.25
2019-05-28T04:12:08.038Z,5.82
2019-05-28T04:17:15.446Z,6.96
2019-05-28T04:22:22.914Z,5.93
2019-05-28T04:27:30.255Z,7.30
2019-05-28T04:32:40.670Z,6.87
2019-05-28T04:37:44.820Z,9.44
2019-05-28T04:42:52.203Z,9.32
2019-05-28T04:47:59.612Z,8.13
2019-05-28T04:53:07.047Z,9.76
2019-05-28T04:58:14.440Z,9.46
2019-05-28T05:03:21.955Z,11.48
2019-05-28T05:08:29.299Z,14.87
2019-05-28T05:13:36.691Z,12.52
2019-05-28T05:18:44.089Z,11.92
2019-05-28T05:23:51.480Z,10.24
2019-05-28T05:28:58.953Z,9.99
2019-05-28T05:34:06.378Z,11.55
2019-05-28T05:39:13.765Z,10.99
2019-05-28T05:44:21.146Z,11.83
2019-05-28T05:49:28.522Z,12.69
2019-05-28T05:54:35.922Z,10.28
2019-05-28T05:59:43.263Z,12.04
2019-05-28T06:04:50.644Z,10.16
2019-05-28T06:09:58.101Z,11.48
2019-05-28T06:15:05.541Z,10.01
2019-05-28T06:20:12.966Z,10.44
2019-05-28T06:25:20.295Z,11.12
2019-05-28T06:30:27.738Z,10.84
2019-05-28T06:35:35.137Z,12.53
2019-05-28T06:40:42.627Z,13.43
2019-05-28T06:45:50.031Z,10.99
2019-05-28T06:50:57.397Z,12.57
2019-05-28T06:56:04.757Z,10.91
2019-05-28T07:01:12.247Z,13.57
2019-05-28T07:06:19.638Z,12.00
2019-05-28T07:11:27.059Z,15.27
2019-05-28T07:16:34.474Z,15.02
2019-05-28T07:21:41.934Z,16.48
2019-05-28T07:26:49.331Z,18.10
2019-05-28T07:31:56.791Z,13.06
2019-05-28T07:37:04.178Z,15.96
2019-05-28T07:42:11.676Z,13.67
2019-05-28T07:47:19.097Z,17.56
2019-05-28T07:52:26.605Z,15.25
2019-05-28T07:57:34.008Z,15.44
2019-05-28T08:02:41.553Z,14.97
2019-05-28T08:07:48.921Z,15.71
2019-05-28T08:12:56.335Z,15.36
2019-05-28T08:18:03.802Z,18.50
2019-05-28T08:23:11.172Z,16.08
2019-05-28T08:28:20.244Z,20.85
2019-05-28T08:33:25.688Z,14.45
2019-05-28T08:38:33.213Z,16.74
2019-05-28T08:43:40.779Z,13.12
2019-05-28T08:48:48.207Z,13.29
2019-05-28T08:53:55.726Z,15.15
2019-05-28T08:59:03.407Z,12.34
2019-05-28T09:04:10.937Z,15.74
2019-05-28T09:09:18.423Z,16.15
2019-05-28T09:14:25.876Z,14.52
2019-05-28T09:19:35.255Z,12.26
2019-05-28T09:24:42.708Z,9.59
2019-05-28T09:29:55.201Z,13.62
2019-05-28T09:35:02.291Z,6.99
2019-05-28T09:40:06.157Z,8.55
2019-05-28T09:45:22.362Z,10.89
2019-05-28T09:50:30.394Z,12.15
2019-05-28T09:55:27.644Z,14.43
2019-05-28T10:00:35.101Z,18.50
2019-05-28T10:05:57.095Z,14.64
2019-05-28T10:10:49.741Z,6.59
2019-05-28T10:15:57.175Z,4.85
2019-05-28T10:21:17.815Z,3.32
2019-05-28T10:26:11.623Z,3.54
2019-05-28T10:31:19.308Z,4.33
2019-05-28T10:36:36.058Z,3.85
2019-05-28T10:41:33.742Z,3.56
2019-05-28T10:46:41.179Z,3.13
2019-05-28T10:51:48.680Z,2.84
2019-05-28T10:56:56.154Z,3.86
2019-05-28T11:02:03.593Z,2.65
2019-05-28T11:07:11.061Z,2.89
2019-05-28T11:12:18.497Z,3.46
2019-05-28T11:17:26.013Z,2.36
2019-05-28T11:22:33.569Z,2.50
2019-05-28T11:27:41.075Z,1.64
2019-05-28T11:32:48.552Z,3.51
2019-05-28T11:37:56.253Z,3.33
2019-05-28T11:43:03.675Z,7.24
2019-05-28T11:48:11.214Z,6.21
2019-05-28T11:53:18.679Z,8.01
2019-05-28T11:58:26.081Z,6.52
2019-05-28T12:03:33.690Z,6.21
2019-05-28T12:08:41.079Z,3.87
2019-05-28T12:13:49.617Z,3.59
2019-05-28T12:18:58.446Z,3.91
2019-05-28T12:24:04.070Z,4.47
2019-05-28T12:29:11.441Z,4.77
2019-05-28T12:34:18.987Z,4.76
2019-05-28T12:39:26.439Z,3.48
2019-05-28T12:44:42.181Z,3.30
2019-05-28T12:49:40.960Z,2.76
2019-05-28T12:54:48.552Z,5.01
2019-05-28T12:59:55.991Z,5.81
2019-05-28T13:05:03.510Z,8.25
2019-05-28T13:10:10.955Z,9.42
2019-05-28T13:15:18.398Z,9.95
2019-05-28T13:20:25.827Z,10.62
2019-05-28T13:25:33.315Z,9.65
2019-05-28T13:30:40.878Z,8.95
2019-05-28T13:35:48.247Z,7.25
2019-05-28T13:40:55.697Z,8.07
2019-05-28T13:46:03.104Z,6.10
2019-05-28T13:51:10.575Z,5.40
2019-05-28T13:56:17.968Z,7.04
2019-05-28T14:01:25.837Z,4.56
2019-05-28T14:06:32.353Z,3.15
2019-05-28T14:11:39.707Z,3.79
2019-05-28T14:16:47.135Z,2.90
2019-05-28T14:21:54.593Z,2.20
2019-05-28T14:27:02.013Z,4.03
2019-05-28T14:32:09.495Z,3.77
2019-05-28T14:37:16.836Z,5.01
2019-05-28T14:42:24.274Z,5.04
2019-05-28T14:47:31.729Z,4.55
2019-05-28T14:52:39.155Z,4.81
2019-05-28T14:57:46.553Z,3.70
2019-05-28T15:02:53.971Z,3.93
2019-05-28T15:08:01.360Z,4.23
2019-05-28T15:13:09.033Z,4.42
2019-05-28T15:18:16.439Z,4.11
2019-05-28T15:23:24.067Z,4.48
2019-05-28T15:28:31.537Z,4.89
2019-05-28T15:33:38.935Z,4.25
2019-05-28T15:38:46.531Z,4.95
2019-05-28T15:43:54.039Z,4.00
2019-05-28T15:49:01.619Z,4.52
2019-05-28T15:54:09.033Z,5.84
2019-05-28T15:59:16.497Z,6.32
2019-05-28T16:04:24.007Z,8.17
2019-05-28T16:09:31.445Z,8.47
2019-05-28T16:14:38.860Z,8.97
2019-05-28T16:19:46.273Z,7.63
2019-05-28T16:24:53.787Z,7.69
2019-05-28T16:30:01.401Z,9.41
2019-05-28T16:35:08.858Z,8.50
2019-05-28T16:40:16.631Z,7.85
2019-05-28T16:45:23.367Z,6.97
2019-05-28T16:50:30.938Z,6.02
2019-05-28T16:55:41.739Z,5.16
2019-05-28T17:00:45.456Z,3.74
2019-05-28T17:05:52.874Z,4.08
2019-05-28T17:11:00.292Z,4.12
2019-05-28T17:16:07.723Z,3.85
2019-05-28T17:21:15.133Z,3.33
2019-05-28T17:26:22.619Z,4.03
2019-05-28T17:31:30.069Z,4.42
2019-05-28T17:36:37.493Z,3.82
2019-05-28T17:41:44.999Z,4.62
2019-05-28T17:46:52.732Z,4.48
2019-05-28T17:52:00.254Z,4.63
2019-05-28T17:57:07.751Z,4.20
2019-05-28T18:02:15.595Z,3.54
2019-05-28T18:07:23.537Z,4.63
2019-05-28T18:12:40.291Z,5.24
2019-05-28T18:17:39.416Z,5.09
2019-05-28T18:22:50.811Z,4.83
2019-05-28T18:27:49.923Z,5.35
2019-05-28T18:32:58.406Z,6.77
2019-05-28T18:38:07.507Z,5.49
2019-05-28T18:43:19.674Z,6.09
2019-05-28T18:48:24.684Z,6.02
2019-05-28T18:53:32.056Z,7.19
2019-05-28T18:58:39.625Z,6.59
2019-05-28T19:03:47.262Z,5.68
2019-05-28T19:08:55.277Z,6.77
2019-05-28T19:14:02.947Z,5.96
2019-05-28T19:19:10.496Z,6.26
2019-05-28T19:24:18.529Z,6.41
2019-05-28T19:29:25.946Z,4.28
2019-05-28T19:34:33.820Z,7.72
2019-05-28T19:39:41.264Z,7.42
2019-05-28T19:44:48.967Z,8.20
2019-05-28T19:49:56.904Z,10.03
2019-05-28T19:55:04.345Z,7.85
2019-05-28T20:00:12.059Z,8.87
2019-05-28T20:05:20.134Z,5.32
2019-05-28T20:10:28.226Z,7.20
2019-05-28T20:15:35.788Z,5.96
2019-05-28T20:20:43.882Z,6.66
2019-05-28T20:25:52.978Z,6.52
2019-05-28T20:30:59.771Z,6.33
2019-05-28T20:36:06.223Z,5.99
2019-05-28T20:41:13.983Z,6.25
2019-05-28T20:46:21.625Z,6.53
2019-05-28T20:51:29.008Z,5.58
2019-05-28T20:56:36.603Z,5.44
2019-05-28T21:01:44.151Z,6.36
2019-05-28T21:06:52.112Z,6.79
2019-05-28T21:11:58.693Z,5.89
2019-05-28T21:17:05.886Z,5.61
2019-05-28T21:22:26.264Z,5.64
2019-05-28T21:27:20.502Z,6.06
2019-05-28T21:32:27.997Z,6.39
2019-05-28T21:37:35.369Z,5.21
2019-05-28T21:42:58.254Z,6.00
2019-05-28T21:47:49.993Z,6.01
2019-05-28T21:52:57.434Z,7.00
2019-05-28T21:58:04.823Z,7.54
2019-05-28T22:03:12.328Z,4.99
2019-05-28T22:08:19.717Z,5.12
2019-05-28T22:13:27.201Z,5.74
2019-05-28T22:18:34.603Z,6.08
2019-05-28T22:23:42.314Z,4.96
2019-05-28T22:28:49.704Z,6.52
2019-05-28T22:33:57.187Z,5.61
2019-05-28T22:39:05.329Z,4.37
2019-05-28T22:44:11.493Z,5.36
2019-05-28T22:49:19.030Z,4.96
2019-05-28T22:54:26.474Z,4.94
2019-05-28T22:59:36.353Z,6.39
2019-05-28T23:04:40.950Z,5.95
2019-05-28T23:09:48.325Z,5.44
2019-05-28T23:14:55.894Z,4.71
2019-05-28T23:20:04.618Z,5.27
2019-05-28T23:25:11.372Z,4.96
2019-05-28T23:30:23.430Z,3.77
2019-05-28T23:35:24.287Z,4.96
2019-05-28T23:40:31.776Z,4.11
2019-05-28T23:45:39.452Z,4.00
2019-05-28T23:50:47.038Z,4.91
2019-05-28T23:55:54.543Z,4.47
